Time;durP1;ratioP1;P1;durP2;ratioP2;P2;SDS_P1;SDS_P2;PMS_P1;PMS_P2;Temp;Humidity;BMP_temperature;BMP_pressure;BME280_temperature;BME280_humidity;BME280_pressure;Samples;Min_cycle;Max_cycle;Signal;HPM_P1;HPM_P2
2022/10/25 00:01:48;;;;;;;21.65;10.50;;;13.60;99.90;;;;;;5072178;28;20494;-84
2022/10/25 00:04:14;;;;;;;20.90;17.10;;;13.60;99.90;;;;;;5071384;28;20643;-84
2022/10/25 00:06:39;;;;;;;21.35;10.80;;;13.60;99.90;;;;;;5072295;28;20036;-84
2022/10/25 00:09:05;;;;;;;17.38;9.25;;;13.60;99.90;;;;;;5071458;28;20603;-84
2022/10/25 00:11:31;;;;;;;15.07;9.27;;;13.60;99.90;;;;;;5071580;28;20501;-84
2022/10/25 00:14:00;;;;;;;20.90;17.05;;;13.60;99.90;;;;;;5055001;28;20036;-84
2022/10/25 00:16:29;;;;;;;19.42;16.05;;;13.60;99.90;;;;;;5071338;28;20032;-84
2022/10/25 00:18:54;;;;;;;19.05;9.70;;;13.70;99.90;;;;;;5055384;28;20071;-84
2022/10/25 00:21:20;;;;;;;15.43;8.80;;;13.60;99.90;;;;;;5071275;28;20068;-84
2022/10/25 00:23:46;;;;;;;23.20;17.00;;;13.60;99.90;;;;;;5068747;28;20116;-84
2022/10/25 00:26:12;;;;;;;17.83;9.30;;;13.50;99.90;;;;;;5072503;28;20119;-84
2022/10/25 00:28:38;;;;;;;14.65;8.60;;;13.50;99.90;;;;;;5071762;28;20041;-83
2022/10/25 00:31:08;;;;;;;16.23;9.20;;;13.40;99.90;;;;;;5071155;28;20046;-84
2022/10/25 00:33:35;;;;;;;15.98;8.30;;;13.30;99.90;;;;;;5055050;28;20398;-84
2022/10/25 00:36:05;;;;;;;20.95;16.00;;;13.30;99.90;;;;;;5054804;28;20035;-84
2022/10/25 00:38:31;;;;;;;20.00;16.15;;;13.30;99.90;;;;;;5055388;28;20040;-83
2022/10/25 00:40:57;;;;;;;15.98;7.63;;;13.30;99.90;;;;;;5054075;28;20036;-84
2022/10/25 00:43:36;;;;;;;15.35;7.75;;;13.20;99.90;;;;;;5071855;28;20425;-84
2022/10/25 00:46:07;;;;;;;16.17;8.82;;;13.20;99.90;;;;;;5051203;28;20041;-83
2022/10/25 00:48:33;;;;;;;17.40;9.13;;;13.10;99.90;;;;;;5054842;28;20051;-84
2022/10/25 00:50:59;;;;;;;16.98;8.80;;;13.10;99.90;;;;;;5054498;28;20086;-83
2022/10/25 00:53:31;;;;;;;15.45;9.50;;;13.00;99.90;;;;;;5070731;28;20040;-83
2022/10/25 00:56:15;;;;;;;18.95;9.43;;;13.00;99.90;;;;;;5069080;28;20089;-84
2022/10/25 00:58:46;;;;;;;24.58;16.85;;;13.00;99.90;;;;;;5069559;28;20032;-83
2022/10/25 01:01:13;;;;;;;16.10;9.50;;;13.10;99.90;;;;;;5053772;28;20076;-83
2022/10/25 01:03:41;;;;;;;17.35;8.25;;;13.10;99.90;;;;;;5070926;28;20410;-84
2022/10/25 01:06:15;;;;;;;16.02;8.35;;;13.10;99.90;;;;;;5070756;28;20037;-84
2022/10/25 01:08:43;;;;;;;16.90;9.23;;;13.10;99.90;;;;;;5051732;28;20113;-83
2022/10/25 01:11:08;;;;;;;21.50;16.60;;;13.10;99.90;;;;;;5070628;28;20032;-84
2022/10/25 01:13:35;;;;;;;21.35;15.68;;;13.20;99.90;;;;;;5071057;28;20039;-84
2022/10/25 01:16:17;;;;;;;16.92;7.85;;;13.20;99.90;;;;;;5070283;28;20028;-84
2022/10/25 01:19:05;;;;;;;14.55;7.72;;;13.20;99.90;;;;;;5069616;28;20032;-84
2022/10/25 01:21:44;;;;;;;18.48;7.55;;;13.20;99.90;;;;;;5068889;28;20055;-83
2022/10/25 01:24:38;;;;;;;14.13;7.30;;;13.20;99.90;;;;;;5053510;28;20052;-83
2022/10/25 01:27:22;;;;;;;18.42;8.00;;;13.10;99.90;;;;;;5053298;28;20036;-83
2022/10/25 01:30:06;;;;;;;16.65;7.07;;;13.10;99.90;;;;;;5052616;28;20559;-84
2022/10/25 01:32:40;;;;;;;17.42;7.43;;;13.10;99.90;;;;;;5051028;28;20040;-84
2022/10/25 01:35:27;;;;;;;15.05;7.15;;;13.10;99.90;;;;;;5052472;28;20517;-84
2022/10/25 01:38:19;;;;;;;19.85;12.52;;;13.10;99.90;;;;;;5069734;28;20036;-84
2022/10/25 01:40:56;;;;;;;19.02;12.63;;;13.10;99.90;;;;;;5051488;28;20051;-84
2022/10/25 01:44:00;;;;;;;19.90;7.53;;;13.10;99.90;;;;;;5067475;28;20048;-83
2022/10/25 01:46:45;;;;;;;17.77;5.90;;;13.10;99.90;;;;;;5065616;28;20118;-84
2022/10/25 01:49:25;;;;;;;14.18;6.47;;;13.00;99.90;;;;;;5046821;28;20498;-84
2022/10/25 01:51:50;;;;;;;14.80;6.40;;;13.00;99.90;;;;;;5067094;28;20115;-84
2022/10/25 01:54:20;;;;;;;14.35;6.70;;;12.90;99.90;;;;;;5070097;28;20119;-84
2022/10/25 01:57:04;;;;;;;15.68;6.45;;;12.90;99.90;;;;;;5053035;28;20070;-84
2022/10/25 01:59:42;;;;;;;17.90;7.20;;;12.90;99.90;;;;;;5067639;28;20045;-83
2022/10/25 02:02:24;;;;;;;13.32;6.18;;;12.90;99.90;;;;;;5069810;28;20106;-84
2022/10/25 02:05:12;;;;;;;13.70;5.95;;;12.90;99.90;;;;;;5050649;28;20040;-84
2022/10/25 02:07:41;;;;;;;13.88;6.50;;;12.90;99.90;;;;;;5068791;28;20418;-83
2022/10/25 02:10:29;;;;;;;15.25;6.65;;;12.90;99.90;;;;;;5069337;28;20047;-83
2022/10/25 02:13:12;;;;;;;13.35;5.82;;;12.90;99.90;;;;;;5051647;28;20067;-83
2022/10/25 02:16:04;;;;;;;15.82;6.60;;;12.90;99.90;;;;;;5052955;28;20032;-83
2022/10/25 02:18:34;;;;;;;17.55;7.82;;;12.90;99.90;;;;;;5054117;28;20051;-83
2022/10/25 02:21:01;;;;;;;16.48;7.57;;;12.90;99.90;;;;;;5052963;28;20032;-83
2022/10/25 02:23:29;;;;;;;17.83;7.65;;;12.90;99.90;;;;;;5053465;28;20039;-84
2022/10/25 02:25:57;;;;;;;16.67;8.00;;;13.00;99.90;;;;;;5069719;28;20041;-84
2022/10/25 02:28:25;;;;;;;19.33;8.60;;;13.00;99.90;;;;;;5053154;28;20032;-84
2022/10/25 02:30:52;;;;;;;22.95;17.08;;;13.00;99.90;;;;;;5069655;28;20387;-84
2022/10/25 02:33:18;;;;;;;18.60;8.13;;;13.10;99.90;;;;;;5069414;28;20075;-83
2022/10/25 02:35:44;;;;;;;16.90;8.82;;;13.20;99.90;;;;;;5069679;28;20067;-84
2022/10/25 02:38:09;;;;;;;17.58;9.00;;;13.10;99.90;;;;;;5053050;28;20127;-84
2022/10/25 02:40:35;;;;;;;22.60;8.70;;;13.20;99.90;;;;;;5068322;28;20123;-84
2022/10/25 02:43:01;;;;;;;20.50;16.25;;;13.20;99.90;;;;;;5053008;28;20124;-84
2022/10/25 02:45:26;;;;;;;21.65;16.20;;;13.30;99.90;;;;;;5053243;28;20035;-84
2022/10/25 02:47:52;;;;;;;19.40;8.48;;;13.40;99.90;;;;;;5069605;28;20528;-84
2022/10/25 02:50:17;;;;;;;17.48;8.93;;;13.40;99.90;;;;;;5069329;28;20517;-84
2022/10/25 02:52:43;;;;;;;18.85;9.50;;;13.40;99.90;;;;;;5068989;28;20036;-84
2022/10/25 02:55:09;;;;;;;15.32;8.48;;;13.40;99.90;;;;;;5052909;28;20170;-84
2022/10/25 02:57:36;;;;;;;15.40;8.93;;;13.40;99.90;;;;;;5069135;28;20035;-84
2022/10/25 03:00:03;;;;;;;17.88;9.07;;;13.40;99.90;;;;;;5069979;28;20526;-84
2022/10/25 03:02:29;;;;;;;21.17;15.40;;;13.50;99.90;;;;;;5068898;28;20044;-84
2022/10/25 03:04:54;;;;;;;17.70;8.93;;;13.50;99.90;;;;;;5069623;28;20040;-84
2022/10/25 03:07:20;;;;;;;13.07;8.15;;;13.50;99.90;;;;;;5069797;28;20044;-84
2022/10/25 03:09:45;;;;;;;21.45;14.93;;;13.50;99.90;;;;;;5068782;28;20048;-84
2022/10/25 03:12:11;;;;;;;16.30;8.32;;;13.60;99.90;;;;;;5069459;28;20136;-83
2022/10/25 03:14:37;;;;;;;16.70;8.75;;;13.60;99.90;;;;;;5068832;28;20174;-84
2022/10/25 03:17:02;;;;;;;16.75;8.27;;;13.50;99.90;;;;;;5069596;28;20083;-84
2022/10/25 03:19:28;;;;;;;14.15;8.10;;;13.50;99.90;;;;;;5069541;28;20094;-83
2022/10/25 03:21:53;;;;;;;20.55;14.93;;;13.50;99.90;;;;;;5068886;28;20048;-83
2022/10/25 03:24:19;;;;;;;17.27;7.68;;;13.50;99.90;;;;;;5069553;28;20044;-83
2022/10/25 03:26:44;;;;;;;20.40;14.57;;;13.50;99.90;;;;;;5068786;28;20037;-83
2022/10/25 03:29:10;;;;;;;12.85;7.82;;;13.50;99.90;;;;;;5069497;28;20040;-83
2022/10/25 03:31:35;;;;;;;15.38;7.47;;;13.50;99.90;;;;;;5068705;28;20041;-83
2022/10/25 03:34:01;;;;;;;17.67;8.20;;;13.50;99.90;;;;;;5052228;28;20198;-83
2022/10/25 03:36:27;;;;;;;25.27;14.43;;;13.50;99.90;;;;;;5069824;28;20075;-83
2022/10/25 03:38:52;;;;;;;16.95;8.55;;;13.50;99.90;;;;;;5068590;28;20545;-83
2022/10/25 03:41:18;;;;;;;13.98;7.43;;;13.50;99.90;;;;;;5069062;28;20143;-83
2022/10/25 03:43:43;;;;;;;17.73;8.13;;;13.50;99.90;;;;;;5069561;28;20044;-83
2022/10/25 03:46:09;;;;;;;18.23;7.88;;;13.50;99.90;;;;;;5068526;28;20074;-83
2022/10/25 03:48:34;;;;;;;18.25;8.52;;;13.50;99.90;;;;;;5069486;28;20119;-83
2022/10/25 03:51:00;;;;;;;16.98;8.80;;;13.50;99.90;;;;;;5051881;28;20078;-83
2022/10/25 03:53:26;;;;;;;19.00;8.68;;;13.50;99.90;;;;;;5068612;28;20091;-83
2022/10/25 03:55:51;;;;;;;22.20;14.20;;;13.50;99.90;;;;;;5069213;28;20036;-83
2022/10/25 03:58:18;;;;;;;20.48;14.93;;;13.60;99.90;;;;;;5068650;28;20037;-83
2022/10/25 04:00:44;;;;;;;17.38;8.35;;;13.70;99.90;;;;;;5052170;28;20046;-83
2022/10/25 04:03:10;;;;;;;18.45;8.10;;;13.60;99.90;;;;;;5051990;28;20032;-83
2022/10/25 04:05:35;;;;;;;14.75;9.32;;;13.60;99.90;;;;;;5070373;28;20044;-83
2022/10/25 04:08:01;;;;;;;20.55;8.63;;;13.60;99.90;;;;;;5072420;28;20131;-83
2022/10/25 04:10:27;;;;;;;19.88;8.98;;;13.60;99.90;;;;;;5072767;28;20035;-83
2022/10/25 04:12:52;;;;;;;17.38;8.50;;;13.60;99.90;;;;;;5072733;28;20559;-83
2022/10/25 04:15:18;;;;;;;18.90;9.05;;;13.60;99.90;;;;;;5055676;28;20449;-83
2022/10/25 04:17:47;;;;;;;14.32;8.02;;;13.60;99.90;;;;;;5072258;28;20125;-83
2022/10/25 04:20:12;;;;;;;20.70;14.05;;;13.60;99.90;;;;;;5055999;28;20079;-83
2022/10/25 04:22:38;;;;;;;22.15;14.68;;;13.70;99.90;;;;;;5071181;28;20100;-83
2022/10/25 04:25:04;;;;;;;17.80;8.35;;;13.80;99.90;;;;;;5072405;28;20045;-83
2022/10/25 04:27:30;;;;;;;19.45;8.90;;;13.70;99.90;;;;;;5072558;28;20405;-83
2022/10/25 04:29:55;;;;;;;20.10;14.27;;;13.70;99.90;;;;;;5071979;28;20524;-83
2022/10/25 04:32:21;;;;;;;21.73;14.13;;;13.80;99.90;;;;;;5055553;28;20516;-83
2022/10/25 04:34:46;;;;;;;24.50;14.65;;;13.80;99.90;;;;;;5071669;28;20498;-83
2022/10/25 04:37:12;;;;;;;19.95;8.25;;;13.90;99.90;;;;;;5072467;28;20497;-83
2022/10/25 04:39:37;;;;;;;16.85;7.82;;;13.80;99.90;;;;;;5072051;28;20416;-83
2022/10/25 04:42:03;;;;;;;17.42;8.57;;;13.80;99.90;;;;;;5071336;28;20048;-83
2022/10/25 04:44:28;;;;;;;16.58;8.05;;;13.80;99.90;;;;;;5071874;28;20053;-83
2022/10/25 04:46:54;;;;;;;18.92;8.43;;;13.70;99.90;;;;;;5071004;28;20037;-83
2022/10/25 04:49:19;;;;;;;18.58;9.32;;;13.80;99.90;;;;;;5072232;28;20051;-83
2022/10/25 04:51:45;;;;;;;21.00;14.07;;;13.80;99.90;;;;;;5054254;28;20033;-83
2022/10/25 04:54:11;;;;;;;21.98;9.27;;;13.80;99.90;;;;;;5054657;28;20080;-83
2022/10/25 04:56:37;;;;;;;22.10;14.05;;;13.80;99.90;;;;;;5072216;28;20040;-83
2022/10/25 04:59:03;;;;;;;18.50;9.07;;;13.80;99.90;;;;;;5072862;28;20040;-83
2022/10/25 05:01:28;;;;;;;18.73;8.85;;;13.80;99.90;;;;;;5054248;28;20040;-83
2022/10/25 05:03:54;;;;;;;19.15;8.10;;;13.70;99.90;;;;;;5071603;28;20044;-83
2022/10/25 05:06:25;;;;;;;24.40;14.25;;;13.70;99.90;;;;;;5071158;28;20036;-83
2022/10/25 05:08:52;;;;;;;21.27;14.18;;;13.70;99.90;;;;;;5055188;28;20041;-83
2022/10/25 05:11:23;;;;;;;16.52;8.75;;;13.70;99.90;;;;;;5054285;28;20032;-83
2022/10/25 05:13:48;;;;;;;16.50;7.60;;;13.70;99.90;;;;;;5054699;28;20029;-83
2022/10/25 05:16:20;;;;;;;22.40;13.73;;;13.60;99.90;;;;;;5070438;28;20091;-83
2022/10/25 05:18:46;;;;;;;19.65;8.05;;;13.60;99.90;;;;;;5070794;28;20032;-83
2022/10/25 05:21:13;;;;;;;16.50;7.82;;;13.60;99.90;;;;;;5071206;28;20045;-84
2022/10/25 05:23:39;;;;;;;18.38;8.35;;;13.50;99.90;;;;;;5070816;28;20032;-83
2022/10/25 05:26:16;;;;;;;15.43;8.85;;;13.50;99.90;;;;;;5071257;28;20094;-83
2022/10/25 05:28:44;;;;;;;23.08;14.90;;;13.40;99.90;;;;;;5053903;28;20036;-84
2022/10/25 05:31:16;;;;;;;20.25;9.27;;;13.50;99.90;;;;;;5070541;28;20048;-83
2022/10/25 05:33:43;;;;;;;16.58;7.70;;;13.40;99.90;;;;;;5070845;28;20049;-83
2022/10/25 05:36:10;;;;;;;19.20;8.75;;;13.40;99.90;;;;;;5070717;28;20085;-83
2022/10/25 05:38:35;;;;;;;15.85;7.72;;;13.40;99.90;;;;;;5054532;28;20047;-83
2022/10/25 05:41:01;;;;;;;15.63;7.32;;;13.40;99.90;;;;;;5053322;28;20025;-83
2022/10/25 05:43:26;;;;;;;21.75;12.77;;;13.40;99.90;;;;;;5071086;28;20032;-83
2022/10/25 05:46:01;;;;;;;20.35;12.48;;;13.40;99.90;;;;;;5070864;28;20041;-83
2022/10/25 05:48:26;;;;;;;19.83;11.52;;;13.50;99.90;;;;;;5062523;28;20055;-83
2022/10/25 05:50:52;;;;;;;20.45;6.95;;;13.50;99.90;;;;;;5070471;28;20041;-83
2022/10/25 05:53:18;;;;;;;17.58;10.73;;;13.50;99.90;;;;;;5069840;28;20064;-83
2022/10/25 05:55:44;;;;;;;18.02;10.60;;;13.50;99.90;;;;;;5054474;28;20051;-83
2022/10/25 05:58:09;;;;;;;19.48;11.13;;;13.50;99.90;;;;;;5070739;28;20490;-84
2022/10/25 06:00:35;;;;;;;13.77;5.47;;;13.50;99.90;;;;;;5069917;28;20044;-83
2022/10/25 06:03:01;;;;;;;13.60;5.88;;;13.40;99.90;;;;;;5070715;28;20044;-83
2022/10/25 06:05:26;;;;;;;16.17;6.22;;;13.30;99.90;;;;;;5070148;28;20041;-84
2022/10/25 06:07:52;;;;;;;22.10;6.68;;;13.30;99.90;;;;;;5053837;28;20040;-84
2022/10/25 06:10:17;;;;;;;16.27;6.07;;;13.20;99.90;;;;;;5053683;28;20048;-84
2022/10/25 06:12:43;;;;;;;21.17;11.05;;;13.20;99.90;;;;;;5069204;28;20405;-83
2022/10/25 06:15:09;;;;;;;19.60;10.98;;;13.20;99.90;;;;;;5069664;28;20450;-84
2022/10/25 06:17:34;;;;;;;18.23;6.53;;;13.30;99.90;;;;;;5052881;28;20074;-83
2022/10/25 06:20:00;;;;;;;16.70;6.28;;;13.30;99.90;;;;;;5053054;28;20044;-83
2022/10/25 06:22:25;;;;;;;16.33;5.97;;;13.20;99.90;;;;;;5052329;28;20123;-83
2022/10/25 06:24:51;;;;;;;16.70;7.32;;;13.20;99.90;;;;;;5070582;28;20135;-83
2022/10/25 06:27:16;;;;;;;15.02;6.40;;;13.20;99.90;;;;;;5068715;28;20055;-83
2022/10/25 06:29:42;;;;;;;17.25;6.20;;;13.20;99.90;;;;;;5069391;28;20060;-84
2022/10/25 06:32:08;;;;;;;16.80;7.03;;;13.10;99.90;;;;;;5069275;28;20041;-83
2022/10/25 06:34:33;;;;;;;22.63;12.23;;;13.10;99.90;;;;;;5069515;28;20037;-83
2022/10/25 06:36:59;;;;;;;19.45;7.18;;;13.20;99.90;;;;;;5068745;28;20044;-83
2022/10/25 06:39:24;;;;;;;16.25;6.18;;;13.10;99.90;;;;;;5051264;28;20075;-83
2022/10/25 06:41:50;;;;;;;17.58;7.00;;;13.10;99.90;;;;;;5067981;28;20123;-84
2022/10/25 06:44:15;;;;;;;21.65;11.98;;;13.10;99.90;;;;;;5051704;28;20089;-83
2022/10/25 06:46:41;;;;;;;21.52;7.00;;;13.20;99.90;;;;;;5069177;28;20037;-83
2022/10/25 06:49:08;;;;;;;17.77;7.57;;;13.20;99.90;;;;;;5070086;28;20123;-83
2022/10/25 06:51:34;;;;;;;19.42;7.40;;;13.20;99.90;;;;;;5068594;28;20046;-83
2022/10/25 06:54:04;;;;;;;17.15;6.95;;;13.20;99.90;;;;;;5053077;28;20071;-83
2022/10/25 06:56:30;;;;;;;19.90;7.28;;;13.20;99.90;;;;;;5069452;28;20126;-83
2022/10/25 06:58:56;;;;;;;24.38;12.70;;;13.30;99.90;;;;;;5068997;28;20520;-83
2022/10/25 07:01:23;;;;;;;24.23;12.13;;;13.30;99.90;;;;;;5069350;28;20037;-83
2022/10/25 07:03:55;;;;;;;21.98;6.95;;;13.40;99.90;;;;;;5069516;28;20494;-83
2022/10/25 07:06:34;;;;;;;16.92;5.53;;;13.40;99.90;;;;;;5069732;28;20051;-83
2022/10/25 07:09:00;;;;;;;17.83;6.45;;;13.30;99.90;;;;;;5052551;28;20066;-83
2022/10/25 07:11:27;;;;;;;20.63;6.82;;;13.30;99.90;;;;;;5068488;28;20379;-83
2022/10/25 07:13:54;;;;;;;19.13;6.65;;;13.30;99.90;;;;;;5053013;28;20045;-83
2022/10/25 07:16:20;;;;;;;14.85;6.63;;;13.30;99.90;;;;;;5069017;28;20436;-83
2022/10/25 07:18:46;;;;;;;21.95;12.50;;;13.40;99.90;;;;;;5052216;28;20490;-83
2022/10/25 07:21:21;;;;;;;24.35;12.25;;;13.50;99.90;;;;;;5051380;28;20131;-83
2022/10/25 07:23:49;;;;;;;18.88;6.82;;;13.60;99.90;;;;;;5068610;28;20116;-83
2022/10/25 07:26:19;;;;;;;16.60;5.80;;;13.50;99.90;;;;;;5066647;28;20119;-83
2022/10/25 07:28:47;;;;;;;16.35;7.15;;;13.50;99.90;;;;;;5068057;28;20029;-83
2022/10/25 07:31:33;;;;;;;17.42;6.25;;;13.60;99.90;;;;;;5068023;28;20490;-83
2022/10/25 07:34:01;;;;;;;26.48;12.63;;;13.60;99.90;;;;;;5068088;28;20055;-83
2022/10/25 07:36:27;;;;;;;22.95;11.80;;;13.70;99.90;;;;;;5067097;28;20036;-83
2022/10/25 07:38:53;;;;;;;18.10;7.07;;;13.80;99.90;;;;;;5067625;28;20048;-83
2022/10/25 07:41:18;;;;;;;18.73;7.70;;;13.80;99.90;;;;;;5069289;28;20103;-83
2022/10/25 07:43:44;;;;;;;18.70;7.95;;;13.80;99.90;;;;;;5071585;28;20063;-83
2022/10/25 07:46:10;;;;;;;21.27;12.35;;;13.80;99.90;;;;;;5070751;28;20033;-83
2022/10/25 07:48:35;;;;;;;24.90;12.10;;;13.80;99.90;;;;;;5054957;28;20518;-84
2022/10/25 07:51:03;;;;;;;14.52;6.93;;;13.90;99.90;;;;;;5070189;28;20048;-83
2022/10/25 07:53:28;;;;;;;17.20;7.03;;;13.90;99.90;;;;;;5071574;28;20036;-83
2022/10/25 07:55:54;;;;;;;19.20;7.72;;;13.90;99.90;;;;;;5072411;28;20086;-83
2022/10/25 07:58:20;;;;;;;22.63;13.60;;;13.90;99.90;;;;;;5055765;28;20086;-83
2022/10/25 08:00:46;;;;;;;21.65;13.55;;;14.00;99.90;;;;;;5072011;28;20131;-83
2022/10/25 08:03:13;;;;;;;22.50;13.52;;;14.10;99.90;;;;;;5072161;28;20134;-83
2022/10/25 08:05:38;;;;;;;20.30;13.32;;;14.20;99.90;;;;;;5055123;28;20037;-83
2022/10/25 08:08:04;;;;;;;22.10;8.30;;;14.30;99.90;;;;;;5072331;28;20055;-84
2022/10/25 08:10:30;;;;;;;17.23;7.45;;;14.30;99.90;;;;;;5054883;28;20040;-83
2022/10/25 08:12:56;;;;;;;17.25;8.35;;;14.20;99.90;;;;;;5055126;28;20123;-83
2022/10/25 08:15:22;;;;;;;22.92;13.50;;;14.20;99.90;;;;;;5071674;28;20123;-84
2022/10/25 08:17:56;;;;;;;19.05;7.85;;;14.30;99.90;;;;;;5071841;28;20035;-83
2022/10/25 08:20:22;;;;;;;19.45;8.00;;;14.30;99.90;;;;;;5072520;28;20040;-83
2022/10/25 08:22:47;;;;;;;25.23;13.82;;;14.40;99.90;;;;;;5071145;28;20040;-83
2022/10/25 08:25:13;;;;;;;23.30;13.63;;;14.50;99.90;;;;;;5071344;28;20047;-83
2022/10/25 08:27:40;;;;;;;25.60;14.30;;;14.60;99.90;;;;;;5055429;28;20061;-84
2022/10/25 08:30:07;;;;;;;20.70;13.40;;;14.60;99.90;;;;;;5071267;28;20101;-83
2022/10/25 08:32:35;;;;;;;18.05;8.85;;;14.60;99.90;;;;;;5071115;28;20533;-83
2022/10/25 08:35:01;;;;;;;19.48;8.18;;;14.60;99.90;;;;;;5071480;28;20084;-84
2022/10/25 08:37:26;;;;;;;19.55;13.25;;;14.50;99.90;;;;;;5055594;28;20033;-83
2022/10/25 08:39:52;;;;;;;17.42;8.32;;;14.50;99.90;;;;;;5071151;28;20569;-84
2022/10/25 08:42:34;;;;;;;18.58;8.40;;;14.50;99.90;;;;;;5070451;28;20040;-83
2022/10/25 08:45:04;;;;;;;16.70;7.87;;;14.50;99.90;;;;;;5070449;28;20043;-83
2022/10/25 08:47:39;;;;;;;17.90;8.88;;;14.50;99.90;;;;;;5071169;28;20303;-83
2022/10/25 08:50:13;;;;;;;20.45;13.18;;;14.50;99.90;;;;;;5070491;28;20047;-83
2022/10/25 08:52:52;;;;;;;21.25;13.30;;;14.60;99.90;;;;;;5053682;28;20028;-83
2022/10/25 08:55:43;;;;;;;16.52;7.45;;;14.70;99.90;;;;;;5050047;28;20041;-83
2022/10/25 08:58:16;;;;;;;15.13;7.72;;;14.70;99.90;;;;;;5051994;28;20548;-84
2022/10/25 09:00:43;;;;;;;19.35;13.00;;;14.60;99.90;;;;;;5070182;28;20048;-84
2022/10/25 09:03:24;;;;;;;20.02;8.95;;;14.70;99.90;;;;;;5070718;28;20036;-83
2022/10/25 09:06:08;;;;;;;21.38;12.77;;;14.80;99.90;;;;;;5071159;28;20072;-84
2022/10/25 09:08:52;;;;;;;22.52;8.20;;;14.90;99.90;;;;;;5063310;28;20097;-84
2022/10/25 09:12:02;;;;;;;17.90;11.10;;;15.00;99.90;;;;;;5070746;28;20036;-84
2022/10/25 09:14:39;;;;;;;15.07;7.13;;;15.10;99.90;;;;;;5053649;28;20106;-84
2022/10/25 09:17:18;;;;;;;17.75;10.70;;;15.10;99.90;;;;;;5071212;28;20046;-84
2022/10/25 09:20:02;;;;;;;18.42;11.82;;;15.20;99.90;;;;;;5053620;28;20064;-83
2022/10/25 09:22:30;;;;;;;17.73;10.82;;;15.40;99.90;;;;;;5070554;28;20383;-84
2022/10/25 09:25:30;;;;;;;20.05;11.30;;;15.50;99.90;;;;;;5070483;28;20047;-84
2022/10/25 09:28:02;;;;;;;17.85;10.38;;;15.50;99.90;;;;;;5033542;28;20045;-84
2022/10/25 09:30:36;;;;;;;14.45;6.10;;;15.50;99.90;;;;;;5069251;28;20391;-83
2022/10/25 09:33:07;;;;;;;17.42;10.25;;;15.40;99.90;;;;;;5069728;28;20126;-83
2022/10/25 09:35:53;;;;;;;20.02;11.15;;;15.40;99.90;;;;;;5054019;28;20530;-84
2022/10/25 09:38:36;;;;;;;19.92;10.60;;;15.50;99.90;;;;;;5069924;28;20036;-84
2022/10/25 09:41:11;;;;;;;15.60;6.32;;;15.50;99.90;;;;;;5070361;28;20174;-84
2022/10/25 09:43:57;;;;;;;16.13;8.50;;;15.40;99.90;;;;;;5069918;28;20047;-84
2022/10/25 09:46:27;;;;;;;16.35;8.68;;;15.40;99.90;;;;;;5069995;28;20040;-83
2022/10/25 09:49:00;;;;;;;12.48;6.10;;;15.40;99.90;;;;;;5070608;28;20082;-83
2022/10/25 09:51:32;;;;;;;14.88;8.20;;;15.50;99.90;;;;;;5068759;28;20444;-83
2022/10/25 09:54:00;;;;;;;15.32;5.63;;;15.40;99.90;;;;;;5052806;28;20060;-84
2022/10/25 09:56:26;;;;;;;18.25;8.90;;;15.50;99.90;;;;;;5069274;28;20103;-83
2022/10/25 09:58:52;;;;;;;17.63;7.82;;;15.50;99.90;;;;;;5069547;28;20120;-84
2022/10/25 10:01:25;;;;;;;15.77;7.63;;;15.60;99.90;;;;;;5052767;28;20127;-83
2022/10/25 10:03:51;;;;;;;16.63;7.68;;;15.70;99.90;;;;;;5069296;28;20128;-83
2022/10/25 10:06:30;;;;;;;17.98;6.95;;;15.70;99.90;;;;;;5052767;28;20097;-83
2022/10/25 10:09:03;;;;;;;16.98;6.25;;;15.70;99.90;;;;;;5069445;28;20044;-83
2022/10/25 10:11:29;;;;;;;13.40;6.18;;;15.70;99.90;;;;;;5052748;28;20154;-83
2022/10/25 10:14:00;;;;;;;11.40;3.92;;;15.70;99.90;;;;;;5069369;28;20036;-83
2022/10/25 10:16:31;;;;;;;14.25;6.00;;;15.60;99.90;;;;;;5052566;28;20032;-83
2022/10/25 10:19:14;;;;;;;15.57;6.00;;;15.80;99.90;;;;;;5067313;28;20508;-83
2022/10/25 10:21:43;;;;;;;15.10;5.90;;;15.90;99.90;;;;;;5069062;28;20075;-83
2022/10/25 10:24:17;;;;;;;15.95;5.95;;;15.90;99.90;;;;;;5069784;28;20501;-83
2022/10/25 10:26:47;;;;;;;13.82;5.75;;;15.90;99.90;;;;;;5068137;28;20045;-83
2022/10/25 10:29:19;;;;;;;11.88;4.18;;;15.90;99.90;;;;;;5052125;28;20044;-83
2022/10/25 10:31:59;;;;;;;11.63;3.78;;;15.80;99.90;;;;;;5051962;28;20338;-83
2022/10/25 10:34:43;;;;;;;13.40;5.03;;;15.70;99.90;;;;;;5050116;28;20068;-83
2022/10/25 10:37:13;;;;;;;16.63;5.78;;;15.70;99.90;;;;;;5069116;28;20041;-83
2022/10/25 10:39:57;;;;;;;14.00;5.30;;;15.80;99.90;;;;;;5052891;28;20041;-83
2022/10/25 10:42:30;;;;;;;13.32;4.90;;;15.80;99.90;;;;;;5069518;28;20051;-83
2022/10/25 10:45:08;;;;;;;13.48;4.55;;;15.80;99.90;;;;;;5069217;28;20082;-83
2022/10/25 10:47:47;;;;;;;16.80;5.15;;;15.90;99.90;;;;;;5053115;28;20076;-83
2022/10/25 10:50:22;;;;;;;14.07;4.15;;;15.90;99.90;;;;;;5053008;28;20583;-83
2022/10/25 10:52:58;;;;;;;12.45;4.40;;;15.90;99.90;;;;;;5069105;28;20498;-83
2022/10/25 10:55:35;;;;;;;11.48;3.13;;;15.90;99.90;;;;;;5069885;28;20123;-83
2022/10/25 10:58:25;;;;;;;13.10;4.95;;;15.90;99.90;;;;;;5052795;28;20553;-84
2022/10/25 11:01:01;;;;;;;14.40;4.97;;;15.90;99.90;;;;;;5067321;28;20036;-84
2022/10/25 11:03:40;;;;;;;12.80;4.00;;;16.10;99.90;;;;;;5068919;28;20132;-83
2022/10/25 11:06:12;;;;;;;10.82;4.07;;;16.20;99.90;;;;;;5068893;28;20410;-83
2022/10/25 11:08:38;;;;;;;8.80;2.97;;;16.20;99.90;;;;;;5069552;28;20055;-83
2022/10/25 11:11:20;;;;;;;11.27;4.60;;;16.20;99.90;;;;;;5067898;28;20043;-84
2022/10/25 11:14:00;;;;;;;9.50;2.70;;;16.20;99.90;;;;;;5052600;28;20048;-83
2022/10/25 11:16:41;;;;;;;11.52;4.15;;;16.10;99.90;;;;;;5071989;28;20412;-84
2022/10/25 11:19:09;;;;;;;12.05;3.70;;;16.10;99.90;;;;;;5073065;28;20102;-84
2022/10/25 11:22:04;;;;;;;11.55;3.47;;;16.10;99.90;;;;;;5071707;28;20127;-83
2022/10/25 11:24:32;;;;;;;9.77;3.45;;;16.10;99.90;;;;;;5073496;28;20040;-83
2022/10/25 11:27:07;;;;;;;11.20;3.88;;;16.10;99.90;;;;;;5055968;28;20040;-83
2022/10/25 11:30:10;;;;;;;11.48;4.07;;;16.20;99.90;;;;;;5073040;28;20379;-84
2022/10/25 11:33:17;;;;;;;9.93;3.15;;;16.40;99.90;;;;;;5055452;28;20036;-84
2022/10/25 11:36:14;;;;;;;11.52;4.47;;;16.50;99.90;;;;;;5053052;28;20115;-83
2022/10/25 11:38:55;;;;;;;10.82;3.70;;;16.60;99.90;;;;;;5036327;28;20124;-84
2022/10/25 11:41:52;;;;;;;12.35;3.85;;;16.70;99.90;;;;;;5055890;28;20041;-83
2022/10/25 11:44:42;;;;;;;13.00;3.38;;;16.90;99.90;;;;;;5072406;28;20123;-84
2022/10/25 11:47:17;;;;;;;8.48;3.17;;;17.00;99.90;;;;;;5055280;28;20635;-83
2022/10/25 11:49:55;;;;;;;12.13;3.25;;;16.80;99.90;;;;;;5056377;28;20048;-84
2022/10/25 11:52:43;;;;;;;11.70;3.40;;;16.70;99.90;;;;;;5071469;28;20044;-83
2022/10/25 11:55:34;;;;;;;10.93;3.75;;;16.70;99.90;;;;;;5056116;28;20111;-84
2022/10/25 11:58:15;;;;;;;12.10;3.42;;;16.70;99.90;;;;;;5055237;28;20040;-84
2022/10/25 12:01:02;;;;;;;13.30;4.60;;;16.60;99.90;;;;;;5055896;28;20036;-84
2022/10/25 12:04:06;;;;;;;11.23;4.07;;;16.60;99.90;;;;;;5055100;28;20040;-84
2022/10/25 12:06:44;;;;;;;9.77;2.53;;;16.70;99.90;;;;;;5052177;28;20048;-84
2022/10/25 12:09:25;;;;;;;14.07;4.28;;;16.60;99.90;;;;;;5054639;28;20113;-84
2022/10/25 12:12:05;;;;;;;11.60;3.78;;;16.60;99.90;;;;;;5072096;28;20045;-84
2022/10/25 12:14:41;;;;;;;10.80;3.42;;;16.60;99.90;;;;;;5072500;28;20036;-83
2022/10/25 12:17:29;;;;;;;13.82;3.78;;;16.50;99.90;;;;;;5071572;28;20028;-84
2022/10/25 12:20:04;;;;;;;12.65;4.13;;;16.50;99.90;;;;;;5055443;28;20098;-84
2022/10/25 12:22:37;;;;;;;10.50;3.40;;;16.50;99.90;;;;;;5054035;28;20044;-85
2022/10/25 12:25:13;;;;;;;10.93;3.58;;;16.50;99.90;;;;;;5072247;28;20059;-85
2022/10/25 12:27:41;;;;;;;10.38;2.88;;;16.40;99.90;;;;;;5070496;28;20512;-84
2022/10/25 12:30:15;;;;;;;9.40;3.20;;;16.50;99.90;;;;;;5055072;28;20055;-85
2022/10/25 12:32:45;;;;;;;10.35;2.92;;;16.60;99.90;;;;;;5054563;28;20103;-85
2022/10/25 12:35:28;;;;;;;7.57;2.80;;;17.00;99.90;;;;;;5055000;28;20043;-85
2022/10/25 12:38:17;;;;;;;8.68;2.45;;;17.10;99.90;;;;;;5071880;28;20086;-85
2022/10/25 12:40:46;;;;;;;9.57;3.10;;;17.00;99.90;;;;;;5053510;28;20037;-85
2022/10/25 12:44:01;;;;;;;10.70;3.40;;;17.10;99.90;;;;;;5053695;28;20036;-85
2022/10/25 12:47:00;;;;;;;11.75;3.83;;;17.10;99.90;;;;;;4999535;28;20072;-85
2022/10/25 12:49:39;;;;;;;10.25;3.63;;;17.10;99.90;;;;;;5010910;28;20033;-85
2022/10/25 12:52:35;;;;;;;11.05;3.95;;;17.10;99.90;;;;;;5006930;28;20042;-85
2022/10/25 12:55:21;;;;;;;9.93;3.65;;;17.30;99.90;;;;;;5011133;28;20048;-85
2022/10/25 12:58:24;;;;;;;10.50;3.45;;;17.50;99.90;;;;;;4998554;28;20045;-85
2022/10/25 13:01:11;;;;;;;9.13;3.08;;;17.80;99.90;;;;;;5006814;28;20041;-85